Time,TemperatureF,DewpointF,PressureIn,WindDirection,WindDirectionDegrees,WindSpeedMPH,WindSpeedGustMPH,Humidity,HourlyPrecipIn,Conditions,Clouds,dailyrainin,SoftwareType,DateUTC
2013-05-21 00:01:00,68.2,64.2,29.82,ESE,112,0.0,-999.0,87,-99.99,,,0.00,Acu-Link.com,2013-05-21 04:01:00,
2013-05-21 00:17:00,67.3,63.9,29.82,NW,315,0.0,-999.0,89,-99.99,,,0.00,Acu-Link.com,2013-05-21 04:17:00,
2013-05-21 00:32:00,67.3,63.9,29.82,NNW,337,0.0,-999.0,89,-99.99,,,0.00,Acu-Link.com,2013-05-21 04:32:00,
2013-05-21 00:47:00,66.9,63.9,29.82,East,90,0.0,-999.0,90,-99.99,,,0.00,Acu-Link.com,2013-05-21 04:47:00,
2013-05-21 01:02:00,66.4,63.7,29.82,ENE,67,0.0,-999.0,91,-99.99,,,0.00,Acu-Link.com,2013-05-21 05:02:00,
2013-05-21 01:17:00,66.0,63.6,29.81,NE,45,0.0,-999.0,92,-99.99,,,0.00,Acu-Link.com,2013-05-21 05:17:00,
2013-05-21 01:32:00,65.5,63.4,29.79,NNE,22,0.0,-999.0,93,-99.99,,,0.00,Acu-Link.com,2013-05-21 05:32:00,
2013-05-21 01:47:00,65.1,63.0,29.79,SE,135,0.0,-999.0,93,-99.99,,,0.00,Acu-Link.com,2013-05-21 05:47:00,
2013-05-21 02:02:00,64.8,62.7,29.78,SE,135,0.0,-999.0,93,-99.99,,,0.00,Acu-Link.com,2013-05-21 06:02:00,
2013-05-21 02:17:00,64.4,62.6,29.78,NNE,22,0.0,-999.0,94,-99.99,,,0.00,Acu-Link.com,2013-05-21 06:17:00,
2013-05-21 02:32:00,64.0,62.5,29.77,ESE,112,0.0,-999.0,95,-99.99,,,0.00,Acu-Link.com,2013-05-21 06:32:00,
2013-05-21 02:48:00,63.9,62.7,29.78,East,90,0.0,-999.0,96,-99.99,,,0.00,Acu-Link.com,2013-05-21 06:48:00,
2013-05-21 03:03:00,63.5,62.3,29.78,SW,225,0.0,-999.0,96,-99.99,,,0.00,Acu-Link.com,2013-05-21 07:03:00,
2013-05-21 03:18:00,63.5,62.3,29.77,ESE,112,0.0,-999.0,96,-99.99,,,0.00,Acu-Link.com,2013-05-21 07:18:00,
2013-05-21 03:33:00,63.0,61.8,29.79,ESE,112,0.0,-999.0,96,-99.99,,,0.00,Acu-Link.com,2013-05-21 07:33:00,
2013-05-21 03:48:00,63.0,61.8,29.78,North,0,0.0,-999.0,96,-99.99,,,0.00,Acu-Link.com,2013-05-21 07:48:00,
2013-05-21 04:04:00,63.0,62.1,29.78,SE,135,0.0,-999.0,97,-99.99,,,0.00,Acu-Link.com,2013-05-21 08:04:00,
2013-05-21 04:19:00,63.0,62.1,29.78,West,270,0.0,-999.0,97,-99.99,,,0.00,Acu-Link.com,2013-05-21 08:19:00,
2013-05-21 04:34:00,62.8,61.9,29.78,SSE,157,0.0,-999.0,97,-99.99,,,0.00,Acu-Link.com,2013-05-21 08:34:00,
2013-05-21 04:49:00,62.4,61.5,29.78,West,270,2.2,-999.0,97,-99.99,,,0.00,Acu-Link.com,2013-05-21 08:49:00,
2013-05-21 05:04:00,62.4,61.8,29.79,West,270,0.0,-999.0,98,-99.99,,,0.00,Acu-Link.com,2013-05-21 09:04:00,
2013-05-21 05:19:00,62.4,61.8,29.80,ESE,112,0.0,-999.0,98,-99.99,,,0.00,Acu-Link.com,2013-05-21 09:19:00,
2013-05-21 05:34:00,61.9,61.3,29.81,SW,225,0.0,-999.0,98,-99.99,,,0.00,Acu-Link.com,2013-05-21 09:34:00,
2013-05-21 05:50:00,62.1,61.5,29.82,West,270,0.0,-999.0,98,-99.99,,,0.00,Acu-Link.com,2013-05-21 09:50:00,
2013-05-21 06:05:00,62.4,61.8,29.82,SSW,202,0.0,-999.0,98,-99.99,,,0.00,Acu-Link.com,2013-05-21 10:05:00,
2013-05-21 06:20:00,62.8,62.5,29.82,WNW,292,3.2,-999.0,99,-99.99,,,0.00,Acu-Link.com,2013-05-21 10:20:00,
2013-05-21 06:35:00,63.1,62.8,29.82,NW,315,0.0,-999.0,99,-99.99,,,0.00,Acu-Link.com,2013-05-21 10:35:00,
2013-05-21 06:50:00,63.3,63.0,29.82,NW,315,2.2,-999.0,99,-99.99,,,0.00,Acu-Link.com,2013-05-21 10:50:00,
2013-05-21 07:05:00,63.9,62.7,29.82,West,270,2.7,-999.0,96,-99.99,,,0.00,Acu-Link.com,2013-05-21 11:05:00,
2013-05-21 07:20:00,63.9,62.7,29.83,North,0,0.0,-999.0,96,-99.99,,,0.00,Acu-Link.com,2013-05-21 11:20:00,
2013-05-21 07:36:00,64.9,63.1,29.83,SSW,202,0.0,-999.0,94,-99.99,,,0.00,Acu-Link.com,2013-05-21 11:36:00,
2013-05-21 07:51:00,65.8,63.4,29.83,West,270,1.7,-999.0,92,-99.99,,,0.00,Acu-Link.com,2013-05-21 11:51:00,
2013-05-21 08:06:00,66.6,63.9,29.83,SW,225,1.1,-999.0,91,-99.99,,,0.00,Acu-Link.com,2013-05-21 12:06:00,
2013-05-21 08:21:00,67.6,64.6,29.83,ESE,112,0.0,-999.0,90,-99.99,,,0.00,Acu-Link.com,2013-05-21 12:21:00,
2013-05-21 08:36:00,68.7,65.0,29.83,ESE,112,0.0,-999.0,88,-99.99,,,0.00,Acu-Link.com,2013-05-21 12:36:00,
2013-05-21 08:51:00,70.0,65.6,29.82,ESE,112,0.0,-999.0,86,-99.99,,,0.00,Acu-Link.com,2013-05-21 12:51:00,
2013-05-21 09:06:00,71.2,65.8,29.82,North,0,1.1,-999.0,83,-99.99,,,0.00,Acu-Link.com,2013-05-21 13:06:00,
2013-05-21 09:21:00,72.1,66.3,29.82,NNE,22,0.0,-999.0,82,-99.99,,,0.00,Acu-Link.com,2013-05-21 13:21:00,
2013-05-21 09:36:00,73.9,67.0,29.82,SE,135,0.0,-999.0,79,-99.99,,,0.00,Acu-Link.com,2013-05-21 13:36:00,
2013-05-21 09:52:00,75.4,67.3,29.82,WNW,292,2.7,-999.0,76,-99.99,,,0.00,Acu-Link.com,2013-05-21 13:52:00,
2013-05-21 10:07:00,76.5,68.4,29.81,West,270,0.0,-999.0,76,-99.99,,,0.00,Acu-Link.com,2013-05-21 14:07:00,
2013-05-21 10:22:00,77.9,68.5,29.79,NE,45,1.7,-999.0,73,-99.99,,,0.00,Acu-Link.com,2013-05-21 14:22:00,
2013-05-21 10:37:00,79.2,69.0,29.79,WNW,292,4.2,-999.0,71,-99.99,,,0.00,Acu-Link.com,2013-05-21 14:37:00,
2013-05-21 10:52:00,80.8,69.7,29.79,ESE,112,7.3,-999.0,69,-99.99,,,0.00,Acu-Link.com,2013-05-21 14:52:00,
2013-05-21 11:07:00,82.0,69.5,29.77,WNW,292,2.2,-999.0,66,-99.99,,,0.00,Acu-Link.com,2013-05-21 15:07:00,
2013-05-21 11:22:00,83.8,69.8,29.77,SW,225,1.7,-999.0,63,-99.99,,,0.00,Acu-Link.com,2013-05-21 15:22:00,
2013-05-21 11:37:00,84.7,69.2,29.77,SE,135,0.0,-999.0,60,-99.99,,,0.00,Acu-Link.com,2013-05-21 15:37:00,
2013-05-21 11:52:00,86.0,72.4,29.76,SSE,157,4.2,-999.0,64,-99.99,,,0.00,Acu-Link.com,2013-05-21 15:52:00,
2013-05-21 12:08:00,86.7,72.1,29.76,SW,225,2.2,-999.0,62,-99.99,,,0.00,Acu-Link.com,2013-05-21 16:08:00,
2013-05-21 12:23:00,88.7,72.0,29.75,SW,225,2.7,-999.0,58,-99.99,,,0.00,Acu-Link.com,2013-05-21 16:23:00,
2013-05-21 12:38:00,89.1,70.8,29.76,SSW,202,2.2,-999.0,55,-99.99,,,0.00,Acu-Link.com,2013-05-21 16:38:00,
2013-05-21 12:53:00,89.1,70.8,29.73,North,0,2.2,-999.0,55,-99.99,,,0.00,Acu-Link.com,2013-05-21 16:53:00,
2013-05-21 13:08:00,89.4,71.1,29.73,SE,135,1.7,-999.0,55,-99.99,,,0.00,Acu-Link.com,2013-05-21 17:08:00,
2013-05-21 13:23:00,90.3,70.2,29.72,South,180,1.7,-999.0,52,-99.99,,,0.00,Acu-Link.com,2013-05-21 17:23:00,
2013-05-21 13:38:00,91.0,71.5,29.72,ESE,112,3.2,-999.0,53,-99.99,,,0.00,Acu-Link.com,2013-05-21 17:38:00,
2013-05-21 13:53:00,90.0,70.0,29.71,SW,225,5.8,-999.0,52,-99.99,,,0.00,Acu-Link.com,2013-05-21 17:53:00,
2013-05-21 14:08:00,90.5,69.3,29.69,ESE,112,3.2,-999.0,50,-99.99,,,0.00,Acu-Link.com,2013-05-21 18:08:00,
2013-05-21 14:24:00,92.3,69.7,29.68,SSE,157,2.7,-999.0,48,-99.99,,,0.00,Acu-Link.com,2013-05-21 18:24:00,
2013-05-21 14:39:00,91.8,68.0,29.68,SSE,157,2.2,-999.0,46,-99.99,,,0.00,Acu-Link.com,2013-05-21 18:39:00,
2013-05-21 14:54:00,92.5,67.4,29.67,WNW,292,1.1,-999.0,44,-99.99,,,0.00,Acu-Link.com,2013-05-21 18:54:00,
2013-05-21 15:09:00,91.6,65.9,29.67,West,270,2.7,-999.0,43,-99.99,,,0.00,Acu-Link.com,2013-05-21 19:09:00,
2013-05-21 15:24:00,89.8,65.6,29.66,South,180,1.7,-999.0,45,-99.99,,,0.00,Acu-Link.com,2013-05-21 19:24:00,
2013-05-21 15:39:00,91.0,66.0,29.65,NNW,337,2.2,-999.0,44,-99.99,,,0.00,Acu-Link.com,2013-05-21 19:39:00,
2013-05-21 15:55:00,92.5,66.7,29.64,ESE,112,2.7,-999.0,43,-99.99,,,0.00,Acu-Link.com,2013-05-21 19:55:00,
2013-05-21 16:10:00,90.7,66.4,29.64,SSE,157,2.7,-999.0,45,-99.99,,,0.00,Acu-Link.com,2013-05-21 20:10:00,
2013-05-21 16:25:00,91.6,67.2,29.64,ESE,112,2.2,-999.0,45,-99.99,,,0.00,Acu-Link.com,2013-05-21 20:25:00,
2013-05-21 16:40:00,92.7,66.9,29.63,NNW,337,1.1,-999.0,43,-99.99,,,0.00,Acu-Link.com,2013-05-21 20:40:00,
2013-05-21 16:55:00,91.9,66.2,29.64,West,270,2.7,-999.0,43,-99.99,,,0.00,Acu-Link.com,2013-05-21 20:55:00,
2013-05-21 17:10:00,92.5,67.4,29.64,South,180,2.7,-999.0,44,-99.99,,,0.00,Acu-Link.com,2013-05-21 21:10:00,
2013-05-21 17:25:00,91.2,66.2,29.62,SSE,157,1.7,-999.0,44,-99.99,,,0.00,Acu-Link.com,2013-05-21 21:25:00,
2013-05-21 17:41:00,91.2,66.8,29.62,ESE,112,2.7,-999.0,45,-99.99,,,0.00,Acu-Link.com,2013-05-21 21:41:00,
2013-05-21 17:56:00,91.2,66.2,29.62,SSE,157,2.7,-999.0,44,-99.99,,,0.00,Acu-Link.com,2013-05-21 21:56:00,
2013-05-21 18:11:00,91.2,66.2,29.61,ESE,112,2.7,-999.0,44,-99.99,,,0.00,Acu-Link.com,2013-05-21 22:11:00,
2013-05-21 18:26:00,92.5,67.4,29.61,West,270,4.7,-999.0,44,-99.99,,,0.00,Acu-Link.com,2013-05-21 22:26:00,
2013-05-21 18:41:00,91.8,66.1,29.60,SSE,157,1.1,-999.0,43,-99.99,,,0.00,Acu-Link.com,2013-05-21 22:41:00,
2013-05-21 18:56:00,91.2,66.2,29.60,West,270,1.7,-999.0,44,-99.99,,,0.00,Acu-Link.com,2013-05-21 22:56:00,
2013-05-21 19:11:00,90.3,67.3,29.60,West,270,1.7,-999.0,47,-99.99,,,0.00,Acu-Link.com,2013-05-21 23:11:00,
2013-05-21 19:27:00,87.6,66.6,29.61,SSE,157,5.8,-999.0,50,-99.99,,,0.00,Acu-Link.com,2013-05-21 23:27:00,
2013-05-21 19:42:00,86.9,66.6,29.60,East,90,1.7,-999.0,51,-99.99,,,0.00,Acu-Link.com,2013-05-21 23:42:00,
2013-05-21 19:57:00,86.0,67.4,29.61,ESE,112,2.2,-999.0,54,-99.99,,,0.00,Acu-Link.com,2013-05-21 23:57:00,
2013-05-21 20:12:00,85.3,67.8,29.61,SW,225,1.7,-999.0,56,-99.99,,,0.00,Acu-Link.com,2013-05-22 00:12:00,
2013-05-21 20:27:00,84.2,67.8,29.61,SE,135,4.7,-999.0,58,-99.99,,,0.00,Acu-Link.com,2013-05-22 00:27:00,
2013-05-21 20:42:00,83.7,68.3,29.62,SSE,157,2.7,-999.0,60,-99.99,,,0.00,Acu-Link.com,2013-05-22 00:42:00,
2013-05-21 20:57:00,83.1,68.2,29.62,ESE,112,1.1,-999.0,61,-99.99,,,0.00,Acu-Link.com,2013-05-22 00:57:00,
2013-05-21 21:12:00,82.0,68.1,29.62,West,270,1.7,-999.0,63,-99.99,,,0.00,Acu-Link.com,2013-05-22 01:12:00,
2013-05-21 21:28:00,81.1,68.2,29.63,West,270,1.7,-999.0,65,-99.99,,,0.00,Acu-Link.com,2013-05-22 01:28:00,
2013-05-21 21:44:00,80.4,68.4,29.65,North,0,0.0,-999.0,67,-99.99,,,0.00,Acu-Link.com,2013-05-22 01:44:00,
2013-05-21 23:07:00,78.1,67.9,29.67,NNW,337,2.7,-999.0,71,-99.99,,,0.00,Acu-Link.com,2013-05-22 03:07:00,
2013-05-21 23:22:00,77.7,67.9,29.66,NW,315,3.7,-999.0,72,-99.99,,,0.00,Acu-Link.com,2013-05-22 03:22:00,
2013-05-21 23:37:00,77.2,67.5,29.65,North,0,0.0,-999.0,72,-99.99,,,0.00,Acu-Link.com,2013-05-22 03:37:00,
2013-05-21 23:52:00,76.5,67.6,29.66,WNW,292,3.2,-999.0,74,-99.99,,,0.00,Acu-Link.com,2013-05-22 03:52:00,